createdAt,value
2022-11-30T00:00:50.186Z,4.90
2022-11-30T00:03:09.811Z,4.80
2022-11-30T00:05:29.961Z,4.38
2022-11-30T00:07:49.893Z,4.60
2022-11-30T00:10:10.110Z,3.67
2022-11-30T00:12:29.964Z,5.20
2022-11-30T00:14:49.631Z,5.03
2022-11-30T00:17:09.222Z,4.15
2022-11-30T00:19:28.963Z,4.30
2022-11-30T00:21:48.625Z,4.93
2022-11-30T00:24:08.429Z,6.15
2022-11-30T00:26:28.606Z,6.03
2022-11-30T00:28:48.405Z,5.53
2022-11-30T00:31:12.160Z,6.07
2022-11-30T00:33:33.503Z,5.93
2022-11-30T00:36:01.397Z,6.30
2022-11-30T00:38:21.356Z,5.50
2022-11-30T00:40:41.415Z,6.25
2022-11-30T00:43:01.188Z,4.90
2022-11-30T00:45:20.980Z,5.25
2022-11-30T00:47:41.506Z,4.10
2022-11-30T00:50:02.354Z,4.78
2022-11-30T00:52:22.140Z,5.15
2022-11-30T00:54:41.722Z,5.20
2022-11-30T00:57:01.327Z,4.43
2022-11-30T00:59:21.466Z,4.20
2022-11-30T01:01:41.348Z,4.20
2022-11-30T01:04:01.449Z,4.47
2022-11-30T01:06:20.965Z,5.43
2022-11-30T01:08:40.638Z,8.07
2022-11-30T01:11:32.581Z,5.78
2022-11-30T01:13:54.428Z,5.78
2022-11-30T01:16:18.232Z,4.55
2022-11-30T01:18:38.542Z,5.18
2022-11-30T01:20:58.251Z,4.35
2022-11-30T01:23:17.836Z,4.00
2022-11-30T01:25:38.847Z,4.50
2022-11-30T01:27:58.845Z,4.40
2022-11-30T01:30:20.753Z,5.10
2022-11-30T01:32:40.504Z,5.38
2022-11-30T01:35:00.286Z,5.40
2022-11-30T01:37:19.966Z,5.22
2022-11-30T01:39:40.019Z,5.47
2022-11-30T01:41:59.758Z,4.90
2022-11-30T01:44:25.768Z,5.07
2022-11-30T01:46:53.366Z,5.35
2022-11-30T01:49:17.927Z,5.78
2022-11-30T01:52:09.904Z,5.45
2022-11-30T01:54:35.540Z,5.78
2022-11-30T01:57:32.234Z,5.40
2022-11-30T01:59:56.180Z,6.13
2022-11-30T02:02:23.535Z,6.00
2022-11-30T02:04:43.786Z,4.75
2022-11-30T02:07:06.427Z,5.72
2022-11-30T02:09:28.328Z,5.95
2022-11-30T02:11:49.217Z,6.82
2022-11-30T02:14:23.439Z,7.55
2022-11-30T02:17:15.518Z,6.63
2022-11-30T02:20:02.892Z,6.25
2022-11-30T02:22:50.679Z,6.28
2022-11-30T02:25:23.463Z,6.95
2022-11-30T02:28:01.957Z,7.47
2022-11-30T02:30:23.223Z,7.65
2022-11-30T02:32:47.069Z,7.25
2022-11-30T02:35:08.114Z,7.57
2022-11-30T02:37:29.301Z,6.88
2022-11-30T02:39:49.224Z,7.75
2022-11-30T02:42:13.549Z,7.03
2022-11-30T02:44:33.268Z,6.18
2022-11-30T02:47:08.179Z,6.75
2022-11-30T02:49:57.817Z,6.80
2022-11-30T02:52:19.332Z,6.50
2022-11-30T02:54:39.232Z,6.53
2022-11-30T02:56:58.858Z,7.47
2022-11-30T02:59:19.730Z,4.80
2022-11-30T03:01:40.111Z,7.35
2022-11-30T03:03:59.875Z,6.28
2022-11-30T03:06:19.765Z,6.43
2022-11-30T03:08:39.397Z,6.68
2022-11-30T03:11:03.687Z,6.57
2022-11-30T03:13:23.836Z,6.50
2022-11-30T03:15:43.957Z,5.93
2022-11-30T03:18:04.907Z,6.55
2022-11-30T03:20:25.320Z,6.70
2022-11-30T03:22:45.365Z,6.40
2022-11-30T03:25:05.617Z,8.48
2022-11-30T03:27:25.862Z,8.07
2022-11-30T03:29:45.976Z,7.60
2022-11-30T03:32:06.460Z,7.88
2022-11-30T03:34:27.921Z,7.35
2022-11-30T03:36:48.732Z,8.10
2022-11-30T03:39:08.914Z,7.95
2022-11-30T03:41:29.138Z,9.05
2022-11-30T03:43:48.804Z,8.38
2022-11-30T03:46:08.854Z,8.35
2022-11-30T03:48:29.931Z,7.32
2022-11-30T03:50:49.826Z,6.88
2022-11-30T03:53:10.052Z,6.57
2022-11-30T03:55:30.960Z,7.68
2022-11-30T03:57:51.453Z,6.70
2022-11-30T04:00:13.025Z,7.68
2022-11-30T04:02:33.192Z,7.60
2022-11-30T04:04:53.145Z,6.68
2022-11-30T04:07:13.245Z,7.70
2022-11-30T04:09:32.727Z,6.28
2022-11-30T04:11:52.875Z,6.70
2022-11-30T04:14:12.951Z,7.20
2022-11-30T04:16:33.262Z,6.72
2022-11-30T04:18:56.006Z,5.50
2022-11-30T04:21:16.123Z,5.35
2022-11-30T04:23:38.785Z,7.07
2022-11-30T04:25:59.206Z,5.93
2022-11-30T04:28:19.635Z,4.75
2022-11-30T04:30:39.696Z,5.70
2022-11-30T04:33:00.197Z,4.70
2022-11-30T04:35:20.278Z,6.38
2022-11-30T04:37:40.365Z,5.13
2022-11-30T04:40:00.379Z,5.20
2022-11-30T04:42:20.180Z,5.13
2022-11-30T04:44:40.250Z,4.85
2022-11-30T04:47:00.707Z,4.60
2022-11-30T04:49:20.435Z,4.43
2022-11-30T04:51:40.093Z,5.40
2022-11-30T04:53:59.677Z,5.47
2022-11-30T04:56:19.305Z,4.88
2022-11-30T04:58:39.250Z,5.63
2022-11-30T05:00:59.207Z,5.53
2022-11-30T05:03:18.789Z,4.00
2022-11-30T05:05:38.546Z,5.40
2022-11-30T05:07:59.434Z,4.65
2022-11-30T05:10:19.535Z,4.90
2022-11-30T05:12:39.291Z,4.55
2022-11-30T05:14:59.370Z,5.35
2022-11-30T05:17:19.258Z,4.50
2022-11-30T05:19:38.953Z,4.70
2022-11-30T05:21:58.683Z,4.57
2022-11-30T05:24:18.616Z,4.50
2022-11-30T05:26:38.254Z,3.80
2022-11-30T05:28:57.791Z,4.75
2022-11-30T05:31:17.445Z,4.68
2022-11-30T05:33:37.349Z,4.95
2022-11-30T05:35:57.253Z,4.78
2022-11-30T05:38:17.574Z,3.95
2022-11-30T05:40:37.184Z,4.93
2022-11-30T05:43:01.092Z,4.07
2022-11-30T05:45:20.965Z,4.07
2022-11-30T05:47:40.501Z,3.72
2022-11-30T05:50:00.089Z,3.38
2022-11-30T05:52:19.700Z,3.78
2022-11-30T05:54:39.403Z,4.70
2022-11-30T05:56:59.055Z,4.65
2022-11-30T05:59:18.773Z,4.80
2022-11-30T06:01:38.515Z,5.45
2022-11-30T06:03:58.572Z,5.78
2022-11-30T06:06:18.487Z,6.40
2022-11-30T06:08:38.518Z,6.28
2022-11-30T06:11:00.597Z,6.63
2022-11-30T06:13:23.577Z,7.20
2022-11-30T06:15:47.324Z,6.95
2022-11-30T06:18:07.975Z,6.80
2022-11-30T06:20:27.939Z,6.75
2022-11-30T06:22:47.602Z,6.28
2022-11-30T06:25:07.245Z,6.15
2022-11-30T06:27:31.007Z,6.35
2022-11-30T06:29:50.754Z,6.22
2022-11-30T06:32:10.232Z,5.95
2022-11-30T06:34:31.375Z,6.80
2022-11-30T06:36:50.861Z,7.28
2022-11-30T06:39:11.811Z,6.03
2022-11-30T06:41:31.637Z,5.93
2022-11-30T06:43:51.325Z,8.15
2022-11-30T06:46:11.178Z,8.77
2022-11-30T06:48:31.123Z,7.45
2022-11-30T06:50:51.295Z,7.75
2022-11-30T06:53:10.820Z,6.57
2022-11-30T06:55:32.290Z,7.60
2022-11-30T06:57:52.586Z,7.85
2022-11-30T07:00:13.500Z,7.38
2022-11-30T07:02:34.010Z,7.47
2022-11-30T07:04:53.701Z,8.40
2022-11-30T07:07:13.402Z,6.82
2022-11-30T07:09:36.781Z,7.85
2022-11-30T07:11:56.595Z,7.05
2022-11-30T07:14:16.124Z,8.05
2022-11-30T07:16:35.927Z,8.13
2022-11-30T07:18:56.052Z,7.70
2022-11-30T07:21:15.787Z,9.82
2022-11-30T07:23:56.876Z,8.05
2022-11-30T07:26:17.398Z,7.93
2022-11-30T07:28:50.609Z,8.25
2022-11-30T07:31:31.362Z,7.85
2022-11-30T07:33:51.554Z,7.65
2022-11-30T07:36:12.475Z,6.72
2022-11-30T07:38:32.468Z,7.43
2022-11-30T07:40:52.279Z,13.48
2022-11-30T07:43:11.918Z,15.25
2022-11-30T07:45:31.717Z,11.43
2022-11-30T07:47:51.329Z,13.10
2022-11-30T07:50:11.265Z,11.00
2022-11-30T07:52:31.131Z,10.45
2022-11-30T07:54:51.021Z,10.07
2022-11-30T07:57:11.752Z,12.27
2022-11-30T07:59:31.649Z,11.25
2022-11-30T08:01:51.429Z,10.55
2022-11-30T08:04:13.204Z,11.15
2022-11-30T08:06:33.011Z,10.00
2022-11-30T08:08:55.770Z,12.65
2022-11-30T08:11:19.081Z,13.18
2022-11-30T08:13:39.666Z,10.63
2022-11-30T08:16:05.624Z,13.95
2022-11-30T08:18:25.449Z,19.27
2022-11-30T08:20:49.847Z,15.23
2022-11-30T08:23:10.197Z,9.73
2022-11-30T08:25:30.812Z,7.95
2022-11-30T08:27:50.723Z,8.88
2022-11-30T08:30:10.543Z,10.38
2022-11-30T08:32:30.891Z,11.30
2022-11-30T08:34:50.815Z,11.23
2022-11-30T08:37:10.791Z,11.30
2022-11-30T08:39:33.428Z,10.00
2022-11-30T08:41:53.274Z,9.40
2022-11-30T08:44:13.409Z,10.10
2022-11-30T08:49:22.896Z,8.25
2022-11-30T08:52:15.394Z,7.95
2022-11-30T08:54:22.783Z,7.70
2022-11-30T08:56:42.388Z,7.47
2022-11-30T08:59:01.861Z,8.13
2022-11-30T09:01:28.447Z,6.40
2022-11-30T09:03:53.928Z,6.85
2022-11-30T09:06:19.512Z,6.15
2022-11-30T09:08:41.231Z,7.10
2022-11-30T09:11:36.921Z,8.63
2022-11-30T09:13:59.269Z,11.30
2022-11-30T09:16:20.251Z,7.22
2022-11-30T09:18:41.278Z,7.07
2022-11-30T09:21:04.237Z,7.15
2022-11-30T09:23:24.044Z,7.65
2022-11-30T09:25:43.977Z,10.13
2022-11-30T09:28:05.812Z,8.38
2022-11-30T09:30:29.633Z,6.45
2022-11-30T09:32:49.697Z,6.43
2022-11-30T09:35:12.794Z,7.15
2022-11-30T09:37:32.991Z,6.50
2022-11-30T09:39:52.873Z,6.47
2022-11-30T09:42:15.092Z,7.00
2022-11-30T09:44:44.623Z,6.13
2022-11-30T09:47:17.844Z,7.40
2022-11-30T09:49:43.244Z,6.60
2022-11-30T09:52:05.801Z,7.10
2022-11-30T09:54:35.929Z,6.25
2022-11-30T09:56:55.576Z,11.30
2022-11-30T09:59:28.941Z,11.38
2022-11-30T10:01:55.324Z,7.28
2022-11-30T10:04:23.285Z,7.63
2022-11-30T10:07:05.779Z,5.13
2022-11-30T10:09:37.854Z,6.28
2022-11-30T10:12:21.064Z,9.43
2022-11-30T10:15:15.251Z,5.93
2022-11-30T10:17:56.377Z,5.72
2022-11-30T10:20:39.171Z,6.85
2022-11-30T10:23:18.037Z,7.35
2022-11-30T10:25:55.733Z,6.60
2022-11-30T10:28:46.926Z,5.18
2022-11-30T10:31:13.520Z,6.00
2022-11-30T10:33:51.241Z,5.63
2022-11-30T10:36:25.726Z,6.22
2022-11-30T10:38:53.649Z,6.57
2022-11-30T10:41:26.015Z,6.47
2022-11-30T10:44:04.482Z,5.72
2022-11-30T10:46:29.279Z,6.47
2022-11-30T10:48:58.840Z,6.55
2022-11-30T10:51:19.584Z,5.60
2022-11-30T10:53:39.619Z,7.43
2022-11-30T10:56:05.629Z,7.38
2022-11-30T10:58:42.868Z,7.88
2022-11-30T11:01:09.534Z,7.07
2022-11-30T11:03:30.098Z,7.75
2022-11-30T11:06:02.701Z,7.55
2022-11-30T11:08:26.629Z,7.25
2022-11-30T11:10:50.761Z,6.60
2022-11-30T11:13:36.604Z,6.22
2022-11-30T11:15:59.230Z,7.30
2022-11-30T11:18:25.489Z,7.22
2022-11-30T11:20:46.710Z,6.78
2022-11-30T11:23:19.192Z,8.50
2022-11-30T11:25:42.482Z,8.85
2022-11-30T11:28:18.218Z,9.02
2022-11-30T11:30:38.412Z,8.35
2022-11-30T11:33:13.385Z,8.32
2022-11-30T11:35:39.383Z,6.53
2022-11-30T11:37:59.383Z,7.50
2022-11-30T11:40:21.732Z,8.65
2022-11-30T11:42:46.920Z,7.22
2022-11-30T11:45:34.865Z,8.75
2022-11-30T11:48:09.264Z,7.82
2022-11-30T11:51:05.676Z,8.57
2022-11-30T11:53:23.604Z,9.07
2022-11-30T11:55:44.772Z,9.00
2022-11-30T11:58:05.753Z,8.35
2022-11-30T12:00:25.807Z,8.13
2022-11-30T12:03:22.708Z,8.15
2022-11-30T12:05:51.009Z,9.95
2022-11-30T12:08:27.589Z,9.88
2022-11-30T12:11:05.519Z,10.48
2022-11-30T12:13:33.813Z,8.65
2022-11-30T12:16:14.974Z,11.32
2022-11-30T12:18:49.486Z,9.20
2022-11-30T12:21:14.911Z,10.00
2022-11-30T12:23:35.157Z,8.63
2022-11-30T12:26:40.683Z,11.25
2022-11-30T12:29:03.449Z,9.18
2022-11-30T12:31:41.266Z,7.90
2022-11-30T12:34:10.404Z,7.07
2022-11-30T12:36:38.935Z,8.20
2022-11-30T12:39:20.145Z,8.13
2022-11-30T12:41:46.044Z,6.00
2022-11-30T12:44:38.522Z,5.72
2022-11-30T12:47:19.687Z,6.18
2022-11-30T12:50:09.936Z,6.10
2022-11-30T12:52:47.649Z,5.38
2022-11-30T12:55:42.373Z,6.55
2022-11-30T12:58:17.155Z,7.43
2022-11-30T13:01:08.913Z,6.03
2022-11-30T13:03:52.840Z,6.70
2022-11-30T13:09:04.620Z,7.72
2022-11-30T13:11:34.741Z,8.80
2022-11-30T13:13:57.984Z,8.40
2022-11-30T13:18:39.341Z,6.85
2022-11-30T13:21:36.836Z,7.75
2022-11-30T13:24:25.732Z,6.82
2022-11-30T13:26:49.604Z,8.55
2022-11-30T13:29:36.765Z,8.18
2022-11-30T13:32:04.797Z,8.35
2022-11-30T13:34:29.278Z,6.15
2022-11-30T13:36:49.440Z,6.22
2022-11-30T13:39:13.696Z,6.57
2022-11-30T13:41:33.476Z,5.40
2022-11-30T13:43:53.290Z,6.93
2022-11-30T13:46:21.408Z,5.43
2022-11-30T13:48:43.507Z,6.75
2022-11-30T13:51:04.189Z,5.63
2022-11-30T13:53:25.698Z,8.15
2022-11-30T13:55:57.879Z,6.90
2022-11-30T13:58:19.756Z,6.35
2022-11-30T14:00:39.945Z,7.82
2022-11-30T14:03:25.288Z,8.00
2022-11-30T14:05:46.081Z,6.15
2022-11-30T14:08:05.917Z,6.85
2022-11-30T14:10:29.751Z,5.72
2022-11-30T14:12:58.050Z,6.60
2022-11-30T14:15:42.966Z,5.07
2022-11-30T14:18:08.686Z,5.75
2022-11-30T14:20:37.980Z,6.13
2022-11-30T14:23:13.302Z,6.32
2022-11-30T14:25:34.674Z,7.20
2022-11-30T14:27:56.715Z,6.95
2022-11-30T14:30:20.218Z,6.63
2022-11-30T14:32:43.741Z,8.75
2022-11-30T14:35:13.727Z,7.80
2022-11-30T14:37:41.146Z,8.45
2022-11-30T14:40:04.004Z,7.25
2022-11-30T14:42:26.772Z,11.18
2022-11-30T14:44:47.314Z,8.82
2022-11-30T14:47:21.639Z,8.50
2022-11-30T14:49:51.681Z,8.38
2022-11-30T14:52:14.904Z,8.65
2022-11-30T14:55:12.901Z,8.52
2022-11-30T14:58:02.697Z,8.00
2022-11-30T15:00:26.930Z,11.15
2022-11-30T15:02:48.198Z,10.65
2022-11-30T15:05:14.076Z,11.55
2022-11-30T15:07:37.199Z,14.93
2022-11-30T15:12:23.683Z,10.48
2022-11-30T15:15:01.592Z,10.73
2022-11-30T15:17:21.733Z,12.90
2022-11-30T15:19:47.852Z,13.23
2022-11-30T15:22:21.293Z,14.45
2022-11-30T15:24:43.858Z,14.57
2022-11-30T15:27:11.734Z,13.90
2022-11-30T15:29:36.578Z,15.68
2022-11-30T15:31:58.681Z,8.13
2022-11-30T15:34:25.760Z,15.20
2022-11-30T15:36:46.308Z,15.65
2022-11-30T15:39:14.134Z,20.63
2022-11-30T15:41:35.293Z,20.77
2022-11-30T15:43:56.632Z,21.13
2022-11-30T15:46:41.244Z,20.88
2022-11-30T15:49:12.069Z,24.75
2022-11-30T15:51:45.445Z,14.70
2022-11-30T15:54:05.668Z,17.17
2022-11-30T15:56:28.649Z,15.20
2022-11-30T15:59:00.503Z,15.18
2022-11-30T16:01:24.344Z,16.10
2022-11-30T16:04:03.761Z,15.10
2022-11-30T16:06:47.328Z,16.45
2022-11-30T16:09:19.271Z,12.35
2022-11-30T16:11:39.366Z,12.35
2022-11-30T16:13:59.028Z,18.88
2022-11-30T16:16:27.565Z,10.20
2022-11-30T16:18:47.613Z,12.02
2022-11-30T16:21:12.012Z,23.95
2022-11-30T16:23:34.030Z,16.70
2022-11-30T16:25:53.883Z,16.35
2022-11-30T16:28:15.508Z,13.52
2022-11-30T16:30:35.809Z,13.43
2022-11-30T16:32:55.305Z,13.48
2022-11-30T16:35:22.897Z,13.55
2022-11-30T16:37:42.542Z,11.43
2022-11-30T16:40:02.324Z,10.23
2022-11-30T16:42:22.356Z,9.98
2022-11-30T16:44:41.959Z,13.27
2022-11-30T16:47:01.564Z,15.77
2022-11-30T16:49:21.427Z,13.55
2022-11-30T16:51:41.277Z,25.80
2022-11-30T16:54:00.894Z,26.95
2022-11-30T16:56:20.909Z,26.75
2022-11-30T16:58:41.185Z,24.92
2022-11-30T17:01:01.175Z,20.08
2022-11-30T17:03:25.938Z,22.23
2022-11-30T17:05:46.226Z,41.42
2022-11-30T17:08:06.400Z,40.33
2022-11-30T17:10:26.565Z,21.65
2022-11-30T17:12:46.640Z,19.75
2022-11-30T17:15:10.240Z,32.42
2022-11-30T17:17:30.356Z,32.42
2022-11-30T17:19:51.351Z,38.22
2022-11-30T17:22:10.886Z,37.42
2022-11-30T17:24:30.275Z,32.25
2022-11-30T17:26:49.957Z,29.17
2022-11-30T17:29:09.499Z,24.27
2022-11-30T17:31:29.279Z,26.30
2022-11-30T17:33:48.979Z,28.05
2022-11-30T17:36:12.720Z,22.98
2022-11-30T17:38:34.314Z,17.80
2022-11-30T17:40:54.494Z,26.70
2022-11-30T17:43:14.347Z,23.45
2022-11-30T17:45:39.579Z,26.85
2022-11-30T17:47:59.538Z,29.27
2022-11-30T17:50:19.457Z,32.10
2022-11-30T17:52:39.115Z,27.58
2022-11-30T17:54:58.695Z,25.65
2022-11-30T17:57:18.295Z,24.50
2022-11-30T17:59:37.892Z,24.88
2022-11-30T18:01:58.120Z,29.40
2022-11-30T18:04:17.886Z,33.00
2022-11-30T18:06:37.888Z,33.10
2022-11-30T18:08:57.848Z,28.20
2022-11-30T18:11:23.786Z,26.23
2022-11-30T18:13:43.634Z,24.80
2022-11-30T18:16:12.659Z,21.83
2022-11-30T18:18:32.426Z,25.92
2022-11-30T18:20:52.137Z,27.58
2022-11-30T18:23:11.864Z,28.92
2022-11-30T18:25:34.192Z,27.35
2022-11-30T18:27:53.840Z,29.90
2022-11-30T18:30:13.837Z,30.67
2022-11-30T18:32:33.638Z,35.42
2022-11-30T18:34:53.675Z,35.05
2022-11-30T18:37:13.786Z,34.40
2022-11-30T18:39:33.578Z,28.90
2022-11-30T18:41:53.268Z,28.48
2022-11-30T18:44:13.337Z,26.38
2022-11-30T18:46:33.147Z,20.35
2022-11-30T18:48:53.912Z,22.63
2022-11-30T18:51:23.195Z,26.70
2022-11-30T18:53:43.292Z,24.50
2022-11-30T18:56:18.132Z,25.70
2022-11-30T18:58:38.205Z,25.55
2022-11-30T19:01:07.269Z,23.98
2022-11-30T19:03:26.886Z,24.30
2022-11-30T19:05:46.549Z,27.88
2022-11-30T19:08:13.152Z,26.50
2022-11-30T19:10:37.627Z,28.63
2022-11-30T19:12:57.333Z,27.33
2022-11-30T19:15:17.160Z,30.40
2022-11-30T19:17:36.860Z,30.63
2022-11-30T19:19:56.686Z,25.65
2022-11-30T19:22:16.885Z,25.98
2022-11-30T19:24:36.676Z,29.60
2022-11-30T19:26:56.197Z,31.02
2022-11-30T19:29:15.807Z,32.85
2022-11-30T19:31:35.449Z,28.73
2022-11-30T19:33:55.801Z,27.63
2022-11-30T19:36:18.298Z,29.73
2022-11-30T19:38:37.891Z,29.95
2022-11-30T19:40:57.633Z,33.75
2022-11-30T19:43:17.065Z,28.55
2022-11-30T19:45:36.776Z,25.15
2022-11-30T19:47:56.252Z,22.45
2022-11-30T19:50:16.081Z,24.33
2022-11-30T19:52:35.953Z,25.63
2022-11-30T19:54:55.632Z,24.33
2022-11-30T19:57:15.336Z,24.20
2022-11-30T19:59:34.841Z,26.58
2022-11-30T20:01:54.707Z,24.63
2022-11-30T20:04:14.577Z,27.00
2022-11-30T20:06:36.399Z,35.03
2022-11-30T20:08:56.651Z,36.88
2022-11-30T20:11:16.791Z,34.30
2022-11-30T20:13:37.696Z,32.15
2022-11-30T20:15:57.602Z,33.28
2022-11-30T20:18:17.206Z,37.70
2022-11-30T20:20:36.945Z,37.47
2022-11-30T20:22:57.024Z,35.70
2022-11-30T20:25:17.208Z,35.00
2022-11-30T20:27:36.819Z,34.95
2022-11-30T20:29:56.441Z,34.80
2022-11-30T20:32:16.447Z,37.55
2022-11-30T20:34:40.961Z,36.17
2022-11-30T20:37:03.362Z,39.83
2022-11-30T20:39:23.058Z,34.95
2022-11-30T20:41:42.865Z,37.30
2022-11-30T20:44:02.864Z,35.78
2022-11-30T20:46:26.600Z,28.98
2022-11-30T20:48:47.467Z,30.05
2022-11-30T20:51:33.072Z,36.75
2022-11-30T20:53:53.502Z,41.15
2022-11-30T20:56:13.728Z,51.13
2022-11-30T20:58:33.925Z,54.72
2022-11-30T21:00:53.817Z,41.53
2022-11-30T21:03:13.446Z,42.17
2022-11-30T21:05:34.016Z,39.05
2022-11-30T21:07:53.871Z,32.95
2022-11-30T21:10:14.588Z,27.17
2022-11-30T21:12:34.430Z,36.80
2022-11-30T21:14:54.032Z,42.55
2022-11-30T21:17:13.745Z,41.10
2022-11-30T21:19:33.942Z,37.05
2022-11-30T21:21:55.284Z,29.92
2022-11-30T21:24:15.088Z,27.55
2022-11-30T21:26:39.803Z,28.08
2022-11-30T21:29:06.230Z,23.65
2022-11-30T21:31:26.696Z,31.80
2022-11-30T21:33:52.828Z,41.25
2022-11-30T21:36:15.457Z,36.92
2022-11-30T21:38:35.189Z,38.92
2022-11-30T21:40:59.317Z,37.05
2022-11-30T21:43:18.921Z,38.15
2022-11-30T21:45:38.651Z,42.63
2022-11-30T21:47:58.378Z,42.95
2022-11-30T21:50:19.893Z,44.90
2022-11-30T21:52:41.800Z,46.10
2022-11-30T21:55:01.383Z,38.60
2022-11-30T21:57:21.121Z,39.97
2022-11-30T21:59:41.096Z,36.33
2022-11-30T22:02:00.698Z,40.05
2022-11-30T22:04:20.448Z,39.78
2022-11-30T22:06:41.542Z,40.33
2022-11-30T22:09:07.073Z,40.75
2022-11-30T22:11:26.722Z,37.67
2022-11-30T22:13:50.905Z,38.92
2022-11-30T22:16:13.665Z,37.35
2022-11-30T22:18:33.846Z,34.00
2022-11-30T22:21:01.423Z,36.97
2022-11-30T22:23:21.313Z,35.88
2022-11-30T22:25:41.699Z,34.88
2022-11-30T22:28:01.347Z,37.30
2022-11-30T22:30:21.121Z,34.00
2022-11-30T22:32:43.479Z,33.40
2022-11-30T22:35:03.817Z,35.95
2022-11-30T22:37:23.372Z,35.47
2022-11-30T22:39:42.988Z,35.88
2022-11-30T22:42:02.652Z,34.38
2022-11-30T22:44:23.119Z,34.45
2022-11-30T22:46:43.935Z,32.65
2022-11-30T22:49:08.677Z,36.55
2022-11-30T22:51:30.374Z,36.13
2022-11-30T22:53:51.255Z,46.33
2022-11-30T22:56:13.742Z,46.13
2022-11-30T22:58:33.887Z,37.38
2022-11-30T23:00:53.737Z,43.70
2022-11-30T23:03:13.672Z,40.00
2022-11-30T23:05:34.495Z,36.55
2022-11-30T23:07:54.619Z,37.67
2022-11-30T23:10:14.611Z,37.15
2022-11-30T23:12:57.897Z,36.95
2022-11-30T23:15:14.091Z,35.75
2022-11-30T23:17:33.769Z,35.97
2022-11-30T23:19:53.384Z,34.72
2022-11-30T23:22:12.961Z,36.25
2022-11-30T23:24:32.709Z,35.10
2022-11-30T23:26:52.266Z,34.65
2022-11-30T23:29:14.307Z,38.33
2022-11-30T23:31:36.651Z,38.92
2022-11-30T23:33:56.511Z,39.97
2022-11-30T23:36:17.899Z,39.10
2022-11-30T23:38:38.019Z,43.20
2022-11-30T23:41:07.974Z,44.15
2022-11-30T23:43:27.886Z,40.38
2022-11-30T23:45:47.451Z,41.83
2022-11-30T23:48:07.052Z,39.30
2022-11-30T23:50:26.554Z,41.78
2022-11-30T23:52:46.561Z,40.40
2022-11-30T23:55:06.956Z,43.80
2022-11-30T23:57:26.554Z,41.08
2022-11-30T23:59:46.332Z,40.30
